Aérodrome :
LOGIN :

S'inscrire | Disclaimer

   EN    FR    IT 

 










Légende :    VFR   VFR Marginal   IFR   IFR Intensif   IFR Très Intensif
Visi : 
Plafond : 
>= 8 km
>= 3000ft
5 à 8 km
1000 à 3000 ft
1500m à 5 km
500 à 1000 ft
800 à 1500m
200 à 500 ft
< 800m
< 200 ft
Symboles :   Orages  Brouillard  Fortes neiges  Fortes précipitations  Vent > 20 kt
SIGMETs :   Divers  Orages  Givrage  Turbulence  Onde Orograph.  Cendres Volcan.







- Altitude de l'aérodrome : 433 ft
- Code IATA : CCF
- Voir les cartes d'approche


LFMK - Carcassonne

DERNIER METAR :
  • 250630Z AUTO 09012KT 9999 OVC013 14/11 Q1010 NOSIG

METARs EXPIRÉS :
  • 250600Z AUTO 10010KT 080V140 9999 OVC013 14/11 Q1010 NOSIG
  • 250530Z AUTO 10010KT 080V140 9999 BKN013 OVC023 13/11 Q1010 NOSIG
  • 250500Z AUTO 10011KT 070V140 9999 BKN012 BKN026 13/11 Q1010 NOSIG
  • 250430Z AUTO 10012KT 070V140 9999 BKN011 OVC024 13/11 Q1010 NOSIG
  • 250400Z AUTO 10011KT 9999 OVC011 13/11 Q1011 NOSIG
  • 250330Z AUTO 10012KT 070V130 9999 OVC011 13/11 Q1011 NOSIG

TAF TAF LFMK
Valide du 25 à 03h jusqu'au 26 à 03h UTC


250200Z 2503/2603 10012KT 9999 BKN010
BECMG 2509/2512 10015G30KT SCT025 BKN100
TEMPO 2512/2517 SHRA FEW030TCU
PROB30
TEMPO 2517/2520 TSRA BKN010CB
BECMG 2518/2520 27012KT BKN012 BKN050
TEMPO 2520/2603 RA BKN008
Pas de NOTAMs connus pour ce terrain.
1 SIGMET publié pour la FIR Bordeaux (LFBB) :
 
Orages noyés dans la masse
LFBB SIGMET 1 VALID 250600/250800 LFPW
LFBB BORDEAUX FIR/UIR EMBD TS OBS WI N4400 E00130 - N4430 E00130 - N4430 E00230 - N4400 E00230 TOP FL300 MOV NE 15KT NC=



MET'MAP, la Météo Aéronautique d'un coup d'oeil ! - Copyright ORBIFLY Décembre 2007 - Disclaimer

ORBIFLY MET'MAP TEAM :

Programmation & Développement : Alexandra Zaïnal
Conception & Développement : Baudouin d'Aumeries
Co-Programmation & Développement : Marc-Olivier Méhu
Soutien technique & logistique : Manuel Goepfert

Contact : metmap@orbifly.com




SOURCES & CREDITS :

   NOAA